createdAt,value
2018-01-27T18:04:38.179Z,22.1
2018-01-27T18:05:38.337Z,22.1
2018-01-27T18:06:37.985Z,22.1
2018-01-27T18:07:37.964Z,22.1
2018-01-27T18:08:37.781Z,22.1
2018-01-27T18:09:37.749Z,22.1
2018-01-27T18:10:37.635Z,22.1
2018-01-27T18:11:37.596Z,22.1
2018-01-27T18:12:37.735Z,22.1
2018-01-27T18:13:37.375Z,22.1
2018-01-27T18:14:37.226Z,22.1
2018-01-27T18:15:37.120Z,22.1
2018-01-27T18:16:37.159Z,22.1
2018-01-27T18:17:37.010Z,22.1
2018-01-27T18:18:37.212Z,22.1
2018-01-27T18:19:36.788Z,22.1
2018-01-27T18:20:36.863Z,22.1
2018-01-27T18:21:36.846Z,22.1
2018-01-27T18:22:36.819Z,22.1
2018-01-27T18:23:36.594Z,22.1
2018-01-27T18:24:36.589Z,22.1
2018-01-27T18:25:36.536Z,22.1
2018-01-27T18:26:36.360Z,22.1
2018-01-27T18:27:36.502Z,22.1
2018-01-27T18:28:36.448Z,22.1
2018-01-27T18:29:36.522Z,22.1
2018-01-27T18:30:36.107Z,22.1
2018-01-27T18:31:36.018Z,22.1
2018-01-27T18:32:35.816Z,22.2
2018-01-27T18:33:35.824Z,22.2
2018-01-27T18:34:35.914Z,22.2
2018-01-27T18:35:35.528Z,22.2
2018-01-27T18:36:35.565Z,22.2
2018-01-27T18:37:35.458Z,22.2
2018-01-27T18:38:35.342Z,22.2
2018-01-27T18:39:35.236Z,22.2
2018-01-27T18:40:35.523Z,22.2
2018-01-27T18:41:35.085Z,22.2
2018-01-27T18:42:35.130Z,22.2
2018-01-27T18:43:35.058Z,22.2
2018-01-27T18:44:34.861Z,22.2
2018-01-27T18:45:35.168Z,22.2
2018-01-27T18:46:34.938Z,22.2
2018-01-27T18:47:34.957Z,22.2
2018-01-27T18:48:34.604Z,22.1
2018-01-27T18:49:34.577Z,22.1
2018-01-27T18:50:34.667Z,22.1
2018-01-27T18:51:34.429Z,22.1
2018-01-27T18:52:34.196Z,22.2
2018-01-27T18:53:34.354Z,22.1
2018-01-27T18:54:34.261Z,22.2
2018-01-27T18:55:34.130Z,22.2
2018-01-27T18:56:34.005Z,22.2
2018-01-27T18:57:34.170Z,22.2
2018-01-27T18:58:34.391Z,22.1
2018-01-27T18:59:33.777Z,22.1
2018-01-27T19:00:33.732Z,22.1
2018-01-27T19:01:33.731Z,22.1
2018-01-27T19:02:33.503Z,22.1
2018-01-27T19:03:33.522Z,22.1
2018-01-27T19:04:33.599Z,22.1
2018-01-27T19:05:33.442Z,22.1
2018-01-27T19:06:33.209Z,22.1
2018-01-27T19:07:33.124Z,22.1
2018-01-27T19:08:33.347Z,22.1
2018-01-27T19:09:32.930Z,22.1
2018-01-27T19:10:33.065Z,22.1
2018-01-27T19:11:32.751Z,22.1
2018-01-27T19:12:32.877Z,22.1
2018-01-27T19:13:32.774Z,22.1
2018-01-27T19:14:32.682Z,22.1
2018-01-27T19:15:32.880Z,22.1
2018-01-27T19:16:32.452Z,22.1
2018-01-27T19:17:32.501Z,22.1
2018-01-27T19:18:32.823Z,22.1
2018-01-27T19:19:32.204Z,22.1
2018-01-27T19:20:32.452Z,22.1
2018-01-27T19:21:32.289Z,22.1
2018-01-27T19:22:32.068Z,22.1
2018-01-27T19:23:32.066Z,22.1
2018-01-27T19:24:31.968Z,22.1
2018-01-27T19:25:31.932Z,22.1
2018-01-27T19:26:31.818Z,22.1
2018-01-27T19:27:31.772Z,22.1
2018-01-27T19:28:31.806Z,22.1
2018-01-27T19:29:31.874Z,22.2
2018-01-27T19:30:31.710Z,22.2
2018-01-27T19:31:31.361Z,22.2
2018-01-27T19:32:31.423Z,22.2
2018-01-27T19:33:31.263Z,22.2
2018-01-27T19:34:31.409Z,22.2
2018-01-27T19:35:31.149Z,22.2
2018-01-27T19:36:31.364Z,22.2
2018-01-27T19:37:31.044Z,22.2
2018-01-27T19:38:30.893Z,22.2
2018-01-27T19:39:31.422Z,22.2
2018-01-27T19:40:30.707Z,22.3
2018-01-27T19:41:30.860Z,22.3
2018-01-27T19:42:30.668Z,22.3
2018-01-27T19:43:30.799Z,22.3
2018-01-27T19:44:30.576Z,22.3
2018-01-27T19:45:30.734Z,22.3
2018-01-27T19:46:30.386Z,22.3
2018-01-27T19:47:30.545Z,22.3
2018-01-27T19:48:30.261Z,22.3
2018-01-27T19:49:30.130Z,22.3
2018-01-27T19:50:30.317Z,22.4
2018-01-27T19:51:30.454Z,22.4
2018-01-27T19:52:29.945Z,22.4
2018-01-27T19:53:29.961Z,22.4
2018-01-27T19:54:29.763Z,22.4
2018-01-27T19:55:29.962Z,22.5
2018-01-27T19:56:29.969Z,22.5
2018-01-27T19:57:29.481Z,22.6
2018-01-27T19:58:29.728Z,22.6
2018-01-27T19:59:29.379Z,22.6
2018-01-27T20:00:29.594Z,22.6
2018-01-27T20:01:29.360Z,22.6
2018-01-27T20:02:29.152Z,22.6
2018-01-27T20:03:29.205Z,22.6
2018-01-27T20:04:29.288Z,22.6
2018-01-27T20:05:29.009Z,22.5
2018-01-27T20:06:28.817Z,22.5
2018-01-27T20:07:29.000Z,22.6
2018-01-27T20:08:28.885Z,22.5
2018-01-27T20:09:28.737Z,22.5
2018-01-27T20:10:28.896Z,22.5
2018-01-27T20:11:28.421Z,22.5
2018-01-27T20:12:28.433Z,22.5
2018-01-27T20:13:28.902Z,22.6
2018-01-27T20:14:28.207Z,22.6
2018-01-27T20:15:28.452Z,22.6
2018-01-27T20:16:28.363Z,22.6
2018-01-27T20:17:28.263Z,22.6
2018-01-27T20:18:27.963Z,22.6
2018-01-27T20:19:28.104Z,22.6
2018-01-27T20:20:28.083Z,22.6
2018-01-27T20:21:28.101Z,22.6
2018-01-27T20:22:27.681Z,22.7
2018-01-27T20:23:27.662Z,22.6
2018-01-27T20:24:27.499Z,22.7
2018-01-27T20:25:51.385Z,22.6
2018-01-27T20:26:52.621Z,22.7
2018-01-27T20:27:53.488Z,22.6
2018-01-27T20:28:54.709Z,22.6
2018-01-27T20:29:55.653Z,22.6
2018-01-27T20:30:56.652Z,22.6
2018-01-27T20:31:57.757Z,22.6
2018-01-27T20:32:39.656Z,22.6
2018-01-27T20:33:59.699Z,22.6
2018-01-27T20:35:00.913Z,22.6
2018-01-27T20:36:01.775Z,22.6
2018-01-27T20:36:42.385Z,22.6
2018-01-27T20:37:42.064Z,22.6
2018-01-27T20:38:42.124Z,22.6
2018-01-27T20:39:41.887Z,22.6
2018-01-27T20:40:42.046Z,22.6
2018-01-27T20:41:41.988Z,22.6
2018-01-27T20:42:41.690Z,22.6
2018-01-27T20:43:41.698Z,22.6
2018-01-27T20:44:41.661Z,22.6
2018-01-27T20:45:41.543Z,22.6
2018-01-27T20:46:41.574Z,22.6
2018-01-27T20:47:41.356Z,22.6
2018-01-27T20:48:41.627Z,22.6
2018-01-27T20:49:41.425Z,22.6
2018-01-27T20:50:41.232Z,22.6
2018-01-27T20:51:41.358Z,22.6
2018-01-27T20:52:41.046Z,22.6
2018-01-27T20:53:40.848Z,22.6
2018-01-27T20:54:41.135Z,22.6
2018-01-27T20:55:40.639Z,22.6
2018-01-27T20:56:40.879Z,22.6
2018-01-27T20:57:40.804Z,22.6
2018-01-27T20:58:40.632Z,22.7
2018-01-27T20:59:40.589Z,22.6
2018-01-27T21:00:40.330Z,22.6
2018-01-27T21:01:40.399Z,22.6
2018-01-27T21:02:40.491Z,22.7
2018-01-27T21:03:40.450Z,22.7
2018-01-27T21:04:40.143Z,22.7
2018-01-27T21:05:39.992Z,22.7
2018-01-27T21:06:40.094Z,22.7
2018-01-27T21:07:39.813Z,22.8
2018-01-27T21:08:39.885Z,22.8
2018-01-27T21:09:39.584Z,22.8
2018-01-27T21:10:39.764Z,22.8
2018-01-27T21:11:39.896Z,22.8
2018-01-27T21:12:39.424Z,22.8
2018-01-27T21:13:39.396Z,22.8
2018-01-27T21:14:39.477Z,22.8
2018-01-27T21:15:39.189Z,22.8
2018-01-27T21:16:39.335Z,22.8
2018-01-27T21:17:39.002Z,22.8
2018-01-27T21:18:39.468Z,22.8
2018-01-27T21:19:38.774Z,22.8
2018-01-27T21:20:38.740Z,22.8
2018-01-27T21:21:38.783Z,22.8
2018-01-27T21:22:38.548Z,22.8
2018-01-27T21:23:38.672Z,22.8
2018-01-27T21:24:38.361Z,22.8
2018-01-27T21:25:38.547Z,22.8
2018-01-27T21:26:38.422Z,22.7
2018-01-27T21:27:38.695Z,22.8
2018-01-27T21:28:38.201Z,22.7
2018-01-27T21:29:38.029Z,22.7
2018-01-27T21:30:38.146Z,22.7
2018-01-27T21:31:38.120Z,22.7
2018-01-27T21:32:38.142Z,22.7
2018-01-27T21:33:37.750Z,22.7
2018-01-27T21:34:37.811Z,22.7
2018-01-27T21:35:37.904Z,22.6
2018-01-27T21:36:37.577Z,22.6
2018-01-27T21:37:37.463Z,22.6
2018-01-27T21:38:37.699Z,22.6
2018-01-27T21:39:37.278Z,22.6
2018-01-27T21:40:37.222Z,22.6
2018-01-27T21:41:37.310Z,22.6
2018-01-27T21:42:37.067Z,22.6
2018-01-27T21:43:36.993Z,22.6
2018-01-27T21:44:36.824Z,22.6
2018-01-27T21:45:36.777Z,22.6
2018-01-27T21:46:36.682Z,22.6
2018-01-27T21:47:37.006Z,22.6
2018-01-27T21:48:36.599Z,22.6
2018-01-27T21:49:36.661Z,22.6
2018-01-27T21:50:36.500Z,22.6
2018-01-27T21:51:36.524Z,22.7
2018-01-27T21:52:36.314Z,22.7
2018-01-27T21:53:36.260Z,22.7
2018-01-27T21:54:36.240Z,22.7
2018-01-27T21:55:36.347Z,22.7
2018-01-27T21:56:36.030Z,22.6
2018-01-27T21:57:36.036Z,22.7
2018-01-27T21:58:35.816Z,22.6
2018-01-27T21:59:36.022Z,22.6
2018-01-27T22:00:35.645Z,22.6
2018-01-27T22:01:35.813Z,22.6
2018-01-27T22:02:35.524Z,22.6
2018-01-27T22:03:35.320Z,22.6
2018-01-27T22:04:35.454Z,22.6
2018-01-27T22:05:35.419Z,22.6
2018-01-27T22:06:35.247Z,22.6
2018-01-27T22:07:35.397Z,22.5
2018-01-27T22:08:35.224Z,22.5
2018-01-27T22:09:34.967Z,22.5
2018-01-27T22:10:34.904Z,22.6
2018-01-27T22:11:34.671Z,22.5
2018-01-27T22:12:34.828Z,22.5
2018-01-27T22:13:34.635Z,22.5
2018-01-27T22:14:34.604Z,22.6
2018-01-27T22:15:34.733Z,22.6
2018-01-27T22:16:34.934Z,22.6
2018-01-27T22:17:34.263Z,22.6
2018-01-27T22:18:34.270Z,22.6
2018-01-27T22:19:34.099Z,22.6
2018-01-27T22:20:34.185Z,22.6
2018-01-27T22:21:34.151Z,22.6
2018-01-27T22:22:33.808Z,22.6
2018-01-27T22:23:33.968Z,22.6
2018-01-27T22:24:33.781Z,22.7
2018-01-27T22:25:33.741Z,22.7
2018-01-27T22:26:33.651Z,22.7
2018-01-27T22:27:33.505Z,22.8
2018-01-27T22:28:33.575Z,22.7
2018-01-27T22:29:33.383Z,22.7
2018-01-27T22:30:33.446Z,22.7
2018-01-27T22:31:33.228Z,22.7
2018-01-27T22:32:33.060Z,22.7
2018-01-27T22:33:33.123Z,22.7
2018-01-27T22:34:32.991Z,22.7
2018-01-27T22:35:32.976Z,22.6
2018-01-27T22:36:32.768Z,22.6
2018-01-27T22:37:32.855Z,22.6
2018-01-27T22:38:32.607Z,22.6
2018-01-27T22:39:32.700Z,22.6
2018-01-27T22:40:32.713Z,22.6
2018-01-27T22:41:32.456Z,22.6
2018-01-27T22:42:32.274Z,22.6
2018-01-27T22:43:32.569Z,22.6
2018-01-27T22:44:32.177Z,22.6
2018-01-27T22:45:32.241Z,22.6
2018-01-27T22:46:32.014Z,22.6
2018-01-27T22:47:32.010Z,22.6
2018-01-27T22:48:31.784Z,22.6
2018-01-27T22:49:31.843Z,22.6
2018-01-27T22:50:31.874Z,22.6
2018-01-27T22:51:31.886Z,22.6
2018-01-27T22:52:31.681Z,22.6
2018-01-27T22:53:31.637Z,22.6
2018-01-27T22:54:31.692Z,22.6
2018-01-27T22:55:31.570Z,22.6
2018-01-27T22:56:31.174Z,22.6
2018-01-27T22:57:31.177Z,22.6
2018-01-27T22:58:31.075Z,22.6
2018-01-27T22:59:31.293Z,22.6
2018-01-27T23:00:30.945Z,22.6
2018-01-27T23:01:31.354Z,22.6
2018-01-27T23:02:30.939Z,22.6
2018-01-27T23:03:30.755Z,22.6
2018-01-27T23:04:30.661Z,22.6
2018-01-27T23:05:30.603Z,22.6
2018-01-27T23:06:30.560Z,22.6
2018-01-27T23:07:30.368Z,22.6
2018-01-27T23:08:30.248Z,22.6
2018-01-27T23:09:30.340Z,22.6
2018-01-27T23:10:30.277Z,22.6
2018-01-27T23:11:29.969Z,22.6
2018-01-27T23:12:30.215Z,22.6
2018-01-27T23:13:29.945Z,22.6
2018-01-27T23:14:30.065Z,22.5
2018-01-27T23:15:29.884Z,22.5
2018-01-27T23:16:29.668Z,22.5
2018-01-27T23:17:29.615Z,22.5
2018-01-27T23:18:29.504Z,22.5
2018-01-27T23:19:29.796Z,22.5
2018-01-27T23:20:29.577Z,22.5
2018-01-27T23:21:29.425Z,22.6
2018-01-27T23:22:29.766Z,22.5
2018-01-27T23:23:29.113Z,22.6
2018-01-27T23:24:29.207Z,22.6
2018-01-27T23:25:29.089Z,22.6
2018-01-27T23:26:29.020Z,22.6
2018-01-27T23:27:28.802Z,22.6
2018-01-27T23:28:29.002Z,22.6
2018-01-27T23:29:28.958Z,22.6
2018-01-27T23:30:28.599Z,22.5
2018-01-27T23:31:28.715Z,22.5
2018-01-27T23:32:28.579Z,22.5
2018-01-27T23:33:28.236Z,22.5
2018-01-27T23:34:28.393Z,22.5
2018-01-27T23:35:28.173Z,22.5
2018-01-27T23:36:28.093Z,22.4
2018-01-27T23:37:28.058Z,22.4
2018-01-27T23:38:27.858Z,22.4
2018-01-27T23:39:27.999Z,22.4
2018-01-27T23:40:27.807Z,22.4
2018-01-27T23:41:27.881Z,22.4
2018-01-27T23:42:27.748Z,22.4
2018-01-27T23:43:27.607Z,22.4
2018-01-27T23:44:27.586Z,22.4
2018-01-27T23:45:27.642Z,22.5
2018-01-27T23:46:27.448Z,22.5
2018-01-27T23:47:27.491Z,22.5
2018-01-27T23:48:27.280Z,22.5
2018-01-27T23:49:27.061Z,22.5
2018-01-27T23:50:27.120Z,22.6
2018-01-27T23:51:27.243Z,22.6
2018-01-27T23:52:27.289Z,22.6
2018-01-27T23:53:27.205Z,22.6
2018-01-27T23:54:26.976Z,22.6
2018-01-27T23:55:26.891Z,22.6
2018-01-27T23:56:27.185Z,22.6
2018-01-27T23:57:26.821Z,22.5
2018-01-27T23:58:27.119Z,22.5
2018-01-27T23:59:26.891Z,22.5
